Terminal Aerodrome Forecast
Issued by NWS

Home | Current Version | Previous Version | Text Only | Print | Product List | Glossary On
Versions: 1 2 3 4 5 6 7 8 9 10 11 12 13 14 15 16
000
FTUS44 KSJT 010000 RRA
TAFJCT
TAF
KJCT 010020Z 0100/0124 16008KT P6SM OVC016
     FM010200 19006KT 5SM -DZ BR OVC006
     FM011600 26007KT P6SM BKN015
     FM012000 35013G19KT P6SM SCT030=

USA.gov is the U.S. government's official web portal to all federal, state and local government web resources and services.